Airport View

Enter AWOS ICAO identifier for current METAR.

ex. KFNL

KAAO 261054Z AUTO 14007KT 10SM CLR 20/16 A3003 RMK AO2 SLP156 T02000156

26 Jun 2019 11:50

Frequency: 134.025

Phone: 316-636-2541

Other Area AWOS: KBEC - K1K1 - KIAB - K3AU

TAF KIAB 261000Z 2610/2716 18006KT 9999 FEW200 QNH2998INS BECMG 2617/2618 18010G20KT 9999 FEW320 QNH3001INS BECMG 2701/2702 18012KT 9999 SKC QNH3001INS TX31/2620Z TN20/2612Z